sensor_id;sensor_type;location;lat;lon;timestamp;P1;durP1;ratioP1;P2;durP2;ratioP2
75218;SDS011;63801;49.414;19.474;2023-06-10T00:00:04;22.30;;;14.35;;
75218;SDS011;63801;49.414;19.474;2023-06-10T00:02:06;22.17;;;14.10;;
75218;SDS011;63801;49.414;19.474;2023-06-10T00:04:07;25.80;;;15.25;;
75218;SDS011;63801;49.414;19.474;2023-06-10T00:06:07;22.23;;;14.57;;
75218;SDS011;63801;49.414;19.474;2023-06-10T00:08:08;24.08;;;15.13;;
75218;SDS011;63801;49.414;19.474;2023-06-10T00:10:08;22.63;;;15.15;;
75218;SDS011;63801;49.414;19.474;2023-06-10T00:12:10;23.55;;;14.65;;
75218;SDS011;63801;49.414;19.474;2023-06-10T00:14:10;22.42;;;14.52;;
75218;SDS011;63801;49.414;19.474;2023-06-10T00:16:11;20.88;;;13.55;;
75218;SDS011;63801;49.414;19.474;2023-06-10T00:18:11;24.38;;;14.75;;
75218;SDS011;63801;49.414;19.474;2023-06-10T00:20:11;23.02;;;13.68;;
75218;SDS011;63801;49.414;19.474;2023-06-10T00:22:12;22.80;;;14.75;;
75218;SDS011;63801;49.414;19.474;2023-06-10T00:24:12;25.45;;;15.23;;
75218;SDS011;63801;49.414;19.474;2023-06-10T00:26:13;22.20;;;14.60;;
75218;SDS011;63801;49.414;19.474;2023-06-10T00:28:13;22.85;;;14.60;;
75218;SDS011;63801;49.414;19.474;2023-06-10T00:30:13;25.30;;;15.02;;
75218;SDS011;63801;49.414;19.474;2023-06-10T00:32:14;23.35;;;15.25;;
75218;SDS011;63801;49.414;19.474;2023-06-10T00:34:14;24.77;;;14.63;;
75218;SDS011;63801;49.414;19.474;2023-06-10T00:36:15;25.63;;;14.55;;
75218;SDS011;63801;49.414;19.474;2023-06-10T00:38:15;22.30;;;14.02;;
75218;SDS011;63801;49.414;19.474;2023-06-10T00:40:15;23.73;;;14.70;;
75218;SDS011;63801;49.414;19.474;2023-06-10T00:42:16;22.42;;;14.85;;
75218;SDS011;63801;49.414;19.474;2023-06-10T00:44:16;21.80;;;14.07;;
75218;SDS011;63801;49.414;19.474;2023-06-10T00:46:16;22.92;;;13.75;;
75218;SDS011;63801;49.414;19.474;2023-06-10T00:48:18;23.42;;;14.35;;
75218;SDS011;63801;49.414;19.474;2023-06-10T00:50:19;21.83;;;14.18;;
75218;SDS011;63801;49.414;19.474;2023-06-10T00:52:19;21.95;;;13.38;;
75218;SDS011;63801;49.414;19.474;2023-06-10T00:56:22;22.13;;;13.35;;
75218;SDS011;63801;49.414;19.474;2023-06-10T00:58:23;23.05;;;13.90;;
75218;SDS011;63801;49.414;19.474;2023-06-10T01:00:25;20.83;;;13.05;;
75218;SDS011;63801;49.414;19.474;2023-06-10T01:02:26;21.23;;;13.55;;
75218;SDS011;63801;49.414;19.474;2023-06-10T01:04:27;21.23;;;12.45;;
75218;SDS011;63801;49.414;19.474;2023-06-10T01:06:31;22.25;;;13.57;;
75218;SDS011;63801;49.414;19.474;2023-06-10T01:08:40;19.63;;;12.63;;
75218;SDS011;63801;49.414;19.474;2023-06-10T01:10:57;22.08;;;12.75;;
75218;SDS011;63801;49.414;19.474;2023-06-10T01:13:00;20.85;;;12.95;;
75218;SDS011;63801;49.414;19.474;2023-06-10T01:15:02;18.60;;;13.07;;
75218;SDS011;63801;49.414;19.474;2023-06-10T01:17:04;20.52;;;12.80;;
75218;SDS011;63801;49.414;19.474;2023-06-10T01:19:05;19.85;;;11.85;;
75218;SDS011;63801;49.414;19.474;2023-06-10T01:21:07;19.30;;;11.95;;
75218;SDS011;63801;49.414;19.474;2023-06-10T01:25:10;18.98;;;12.30;;
75218;SDS011;63801;49.414;19.474;2023-06-10T01:27:12;18.40;;;12.02;;
75218;SDS011;63801;49.414;19.474;2023-06-10T01:29:19;18.00;;;11.57;;
75218;SDS011;63801;49.414;19.474;2023-06-10T01:33:39;16.00;;;10.83;;
75218;SDS011;63801;49.414;19.474;2023-06-10T01:35:42;16.98;;;11.73;;
75218;SDS011;63801;49.414;19.474;2023-06-10T01:37:45;17.37;;;11.57;;
75218;SDS011;63801;49.414;19.474;2023-06-10T01:39:46;17.77;;;11.27;;
75218;SDS011;63801;49.414;19.474;2023-06-10T01:41:49;18.45;;;11.90;;
75218;SDS011;63801;49.414;19.474;2023-06-10T01:43:51;15.65;;;10.95;;
75218;SDS011;63801;49.414;19.474;2023-06-10T01:45:52;18.15;;;11.30;;
75218;SDS011;63801;49.414;19.474;2023-06-10T01:47:52;19.33;;;11.25;;
75218;SDS011;63801;49.414;19.474;2023-06-10T01:49:52;14.88;;;10.10;;
75218;SDS011;63801;49.414;19.474;2023-06-10T01:51:53;18.45;;;11.38;;
75218;SDS011;63801;49.414;19.474;2023-06-10T01:53:53;16.75;;;10.60;;
75218;SDS011;63801;49.414;19.474;2023-06-10T01:55:53;16.80;;;10.63;;
75218;SDS011;63801;49.414;19.474;2023-06-10T01:57:54;15.23;;;10.35;;
75218;SDS011;63801;49.414;19.474;2023-06-10T01:59:54;16.08;;;10.30;;
75218;SDS011;63801;49.414;19.474;2023-06-10T02:01:54;17.15;;;10.23;;
75218;SDS011;63801;49.414;19.474;2023-06-10T02:03:55;17.05;;;9.90;;
75218;SDS011;63801;49.414;19.474;2023-06-10T02:05:55;16.67;;;10.15;;
75218;SDS011;63801;49.414;19.474;2023-06-10T02:07:56;14.52;;;9.98;;
75218;SDS011;63801;49.414;19.474;2023-06-10T02:09:56;15.13;;;10.18;;
75218;SDS011;63801;49.414;19.474;2023-06-10T02:11:57;14.90;;;9.70;;
75218;SDS011;63801;49.414;19.474;2023-06-10T02:13:57;13.85;;;9.55;;
75218;SDS011;63801;49.414;19.474;2023-06-10T02:15:58;15.18;;;10.25;;
75218;SDS011;63801;49.414;19.474;2023-06-10T02:17:59;15.30;;;10.00;;
75218;SDS011;63801;49.414;19.474;2023-06-10T02:20:00;15.43;;;9.93;;
75218;SDS011;63801;49.414;19.474;2023-06-10T02:22:06;18.63;;;10.43;;
75218;SDS011;63801;49.414;19.474;2023-06-10T02:24:06;13.85;;;9.98;;
75218;SDS011;63801;49.414;19.474;2023-06-10T02:26:07;15.43;;;10.50;;
75218;SDS011;63801;49.414;19.474;2023-06-10T02:28:08;18.13;;;10.80;;
75218;SDS011;63801;49.414;19.474;2023-06-10T02:30:08;16.92;;;10.43;;
75218;SDS011;63801;49.414;19.474;2023-06-10T02:32:12;15.27;;;10.48;;
75218;SDS011;63801;49.414;19.474;2023-06-10T02:34:13;15.25;;;10.40;;
75218;SDS011;63801;49.414;19.474;2023-06-10T02:36:14;18.63;;;10.13;;
75218;SDS011;63801;49.414;19.474;2023-06-10T02:38:15;15.73;;;10.27;;
75218;SDS011;63801;49.414;19.474;2023-06-10T02:40:16;16.35;;;9.40;;
75218;SDS011;63801;49.414;19.474;2023-06-10T02:42:16;15.30;;;8.80;;
75218;SDS011;63801;49.414;19.474;2023-06-10T02:44:20;15.35;;;8.90;;
75218;SDS011;63801;49.414;19.474;2023-06-10T02:46:20;14.75;;;9.45;;
75218;SDS011;63801;49.414;19.474;2023-06-10T02:48:21;14.40;;;8.93;;
75218;SDS011;63801;49.414;19.474;2023-06-10T02:50:23;16.67;;;9.35;;
75218;SDS011;63801;49.414;19.474;2023-06-10T02:52:24;13.45;;;8.73;;
75218;SDS011;63801;49.414;19.474;2023-06-10T02:54:25;14.52;;;9.25;;
75218;SDS011;63801;49.414;19.474;2023-06-10T02:56:25;13.57;;;8.60;;
75218;SDS011;63801;49.414;19.474;2023-06-10T02:58:25;13.00;;;8.80;;
75218;SDS011;63801;49.414;19.474;2023-06-10T03:00:26;13.02;;;8.85;;
75218;SDS011;63801;49.414;19.474;2023-06-10T03:02:27;12.43;;;8.48;;
75218;SDS011;63801;49.414;19.474;2023-06-10T03:04:28;12.85;;;8.05;;
75218;SDS011;63801;49.414;19.474;2023-06-10T03:06:31;12.45;;;7.82;;
75218;SDS011;63801;49.414;19.474;2023-06-10T03:08:33;13.55;;;7.97;;
75218;SDS011;63801;49.414;19.474;2023-06-10T03:10:33;16.30;;;8.40;;
75218;SDS011;63801;49.414;19.474;2023-06-10T03:12:34;11.57;;;7.88;;
75218;SDS011;63801;49.414;19.474;2023-06-10T03:14:34;13.77;;;8.65;;
75218;SDS011;63801;49.414;19.474;2023-06-10T03:16:34;12.10;;;7.78;;
75218;SDS011;63801;49.414;19.474;2023-06-10T03:18:35;13.35;;;8.02;;
75218;SDS011;63801;49.414;19.474;2023-06-10T03:20:35;12.75;;;8.20;;
75218;SDS011;63801;49.414;19.474;2023-06-10T03:22:37;12.90;;;7.82;;
75218;SDS011;63801;49.414;19.474;2023-06-10T03:24:38;14.30;;;8.43;;
75218;SDS011;63801;49.414;19.474;2023-06-10T03:26:40;13.82;;;8.68;;
75218;SDS011;63801;49.414;19.474;2023-06-10T03:28:40;15.13;;;9.05;;
75218;SDS011;63801;49.414;19.474;2023-06-10T03:30:41;15.07;;;8.93;;
75218;SDS011;63801;49.414;19.474;2023-06-10T03:32:41;13.60;;;8.68;;
75218;SDS011;63801;49.414;19.474;2023-06-10T03:34:41;14.77;;;10.02;;
75218;SDS011;63801;49.414;19.474;2023-06-10T03:36:44;14.05;;;9.43;;
75218;SDS011;63801;49.414;19.474;2023-06-10T03:38:44;19.63;;;11.02;;
75218;SDS011;63801;49.414;19.474;2023-06-10T03:40:45;16.08;;;9.93;;
75218;SDS011;63801;49.414;19.474;2023-06-10T03:42:45;14.35;;;9.52;;
75218;SDS011;63801;49.414;19.474;2023-06-10T03:44:45;14.02;;;9.85;;
75218;SDS011;63801;49.414;19.474;2023-06-10T03:46:46;16.50;;;9.73;;
75218;SDS011;63801;49.414;19.474;2023-06-10T03:48:47;15.60;;;9.65;;
75218;SDS011;63801;49.414;19.474;2023-06-10T03:50:48;15.23;;;9.75;;
75218;SDS011;63801;49.414;19.474;2023-06-10T03:52:50;19.17;;;10.15;;
75218;SDS011;63801;49.414;19.474;2023-06-10T03:54:51;15.70;;;10.07;;
75218;SDS011;63801;49.414;19.474;2023-06-10T03:56:51;15.45;;;9.82;;
75218;SDS011;63801;49.414;19.474;2023-06-10T03:58:52;15.70;;;9.60;;
75218;SDS011;63801;49.414;19.474;2023-06-10T04:00:52;15.23;;;8.35;;
75218;SDS011;63801;49.414;19.474;2023-06-10T04:02:52;11.75;;;8.27;;
75218;SDS011;63801;49.414;19.474;2023-06-10T04:04:53;10.70;;;7.85;;
75218;SDS011;63801;49.414;19.474;2023-06-10T04:06:53;12.25;;;8.48;;
75218;SDS011;63801;49.414;19.474;2023-06-10T04:08:53;12.65;;;8.30;;
75218;SDS011;63801;49.414;19.474;2023-06-10T04:10:54;11.93;;;8.43;;
75218;SDS011;63801;49.414;19.474;2023-06-10T04:12:54;15.77;;;8.38;;
75218;SDS011;63801;49.414;19.474;2023-06-10T04:14:55;13.88;;;8.43;;
75218;SDS011;63801;49.414;19.474;2023-06-10T04:16:55;18.90;;;8.70;;
75218;SDS011;63801;49.414;19.474;2023-06-10T04:18:55;11.98;;;8.45;;
75218;SDS011;63801;49.414;19.474;2023-06-10T04:20:56;14.27;;;8.73;;
75218;SDS011;63801;49.414;19.474;2023-06-10T04:22:56;13.85;;;8.98;;
75218;SDS011;63801;49.414;19.474;2023-06-10T04:24:57;14.55;;;8.43;;
75218;SDS011;63801;49.414;19.474;2023-06-10T04:26:57;13.50;;;8.88;;
75218;SDS011;63801;49.414;19.474;2023-06-10T04:28:58;13.32;;;9.35;;
75218;SDS011;63801;49.414;19.474;2023-06-10T04:30:58;12.48;;;8.45;;
75218;SDS011;63801;49.414;19.474;2023-06-10T04:32:58;13.73;;;9.05;;
75218;SDS011;63801;49.414;19.474;2023-06-10T04:34:59;13.10;;;8.60;;
75218;SDS011;63801;49.414;19.474;2023-06-10T04:37:00;11.80;;;8.30;;
75218;SDS011;63801;49.414;19.474;2023-06-10T04:39:00;14.55;;;8.65;;
75218;SDS011;63801;49.414;19.474;2023-06-10T04:41:01;13.80;;;8.35;;
75218;SDS011;63801;49.414;19.474;2023-06-10T04:43:02;14.75;;;9.00;;
75218;SDS011;63801;49.414;19.474;2023-06-10T04:45:03;14.00;;;8.88;;
75218;SDS011;63801;49.414;19.474;2023-06-10T04:47:04;14.48;;;9.02;;
75218;SDS011;63801;49.414;19.474;2023-06-10T04:49:05;14.52;;;9.00;;
75218;SDS011;63801;49.414;19.474;2023-06-10T04:51:05;13.25;;;8.75;;
75218;SDS011;63801;49.414;19.474;2023-06-10T04:53:06;15.57;;;10.00;;
75218;SDS011;63801;49.414;19.474;2023-06-10T04:55:06;16.63;;;9.98;;
75218;SDS011;63801;49.414;19.474;2023-06-10T04:57:07;14.70;;;9.18;;
75218;SDS011;63801;49.414;19.474;2023-06-10T04:59:07;16.70;;;9.65;;
75218;SDS011;63801;49.414;19.474;2023-06-10T05:01:08;14.90;;;10.05;;
75218;SDS011;63801;49.414;19.474;2023-06-10T05:03:08;17.20;;;10.18;;
75218;SDS011;63801;49.414;19.474;2023-06-10T05:05:08;15.43;;;10.13;;
75218;SDS011;63801;49.414;19.474;2023-06-10T05:07:09;15.75;;;10.23;;
75218;SDS011;63801;49.414;19.474;2023-06-10T05:09:09;17.30;;;10.45;;
75218;SDS011;63801;49.414;19.474;2023-06-10T05:11:10;18.40;;;11.65;;
75218;SDS011;63801;49.414;19.474;2023-06-10T05:13:10;17.20;;;11.27;;
75218;SDS011;63801;49.414;19.474;2023-06-10T05:15:10;17.13;;;11.25;;
75218;SDS011;63801;49.414;19.474;2023-06-10T05:17:11;17.50;;;12.10;;
75218;SDS011;63801;49.414;19.474;2023-06-10T05:19:12;17.02;;;11.32;;
75218;SDS011;63801;49.414;19.474;2023-06-10T05:21:13;19.65;;;11.95;;
75218;SDS011;63801;49.414;19.474;2023-06-10T05:23:13;17.40;;;11.57;;
75218;SDS011;63801;49.414;19.474;2023-06-10T05:25:13;16.48;;;10.57;;
75218;SDS011;63801;49.414;19.474;2023-06-10T05:27:14;15.10;;;10.40;;
75218;SDS011;63801;49.414;19.474;2023-06-10T05:29:15;15.73;;;10.25;;
75218;SDS011;63801;49.414;19.474;2023-06-10T05:31:15;14.88;;;10.00;;
75218;SDS011;63801;49.414;19.474;2023-06-10T05:33:15;13.82;;;9.60;;
75218;SDS011;63801;49.414;19.474;2023-06-10T05:35:16;13.95;;;9.18;;
75218;SDS011;63801;49.414;19.474;2023-06-10T05:37:16;14.88;;;8.48;;
75218;SDS011;63801;49.414;19.474;2023-06-10T05:39:17;13.50;;;8.52;;
75218;SDS011;63801;49.414;19.474;2023-06-10T05:41:17;13.48;;;8.73;;
75218;SDS011;63801;49.414;19.474;2023-06-10T05:43:17;13.48;;;8.13;;
75218;SDS011;63801;49.414;19.474;2023-06-10T05:45:18;12.77;;;8.27;;
75218;SDS011;63801;49.414;19.474;2023-06-10T05:47:18;12.90;;;7.88;;
75218;SDS011;63801;49.414;19.474;2023-06-10T05:49:19;12.02;;;8.40;;
75218;SDS011;63801;49.414;19.474;2023-06-10T05:51:19;15.95;;;10.65;;
75218;SDS011;63801;49.414;19.474;2023-06-10T05:53:19;15.48;;;9.35;;
75218;SDS011;63801;49.414;19.474;2023-06-10T05:55:20;35.13;;;27.80;;
75218;SDS011;63801;49.414;19.474;2023-06-10T05:57:20;16.95;;;10.73;;
75218;SDS011;63801;49.414;19.474;2023-06-10T05:59:22;17.55;;;9.70;;
75218;SDS011;63801;49.414;19.474;2023-06-10T06:01:22;20.08;;;16.85;;
75218;SDS011;63801;49.414;19.474;2023-06-10T06:03:23;17.02;;;12.13;;
75218;SDS011;63801;49.414;19.474;2023-06-10T06:05:23;14.40;;;9.80;;
75218;SDS011;63801;49.414;19.474;2023-06-10T06:07:23;13.63;;;8.63;;
75218;SDS011;63801;49.414;19.474;2023-06-10T06:09:24;14.82;;;9.63;;
75218;SDS011;63801;49.414;19.474;2023-06-10T06:11:24;12.85;;;9.23;;
75218;SDS011;63801;49.414;19.474;2023-06-10T06:13:26;18.87;;;11.53;;
75218;SDS011;63801;49.414;19.474;2023-06-10T06:15:26;14.73;;;9.25;;
75218;SDS011;63801;49.414;19.474;2023-06-10T06:17:27;13.30;;;9.38;;
75218;SDS011;63801;49.414;19.474;2023-06-10T06:19:27;13.60;;;9.20;;
75218;SDS011;63801;49.414;19.474;2023-06-10T06:21:28;13.85;;;9.02;;
75218;SDS011;63801;49.414;19.474;2023-06-10T06:23:28;12.85;;;9.32;;
75218;SDS011;63801;49.414;19.474;2023-06-10T06:25:28;14.00;;;9.15;;
75218;SDS011;63801;49.414;19.474;2023-06-10T06:27:29;16.42;;;11.85;;
75218;SDS011;63801;49.414;19.474;2023-06-10T06:29:29;26.77;;;24.08;;
75218;SDS011;63801;49.414;19.474;2023-06-10T06:31:30;12.35;;;8.93;;
75218;SDS011;63801;49.414;19.474;2023-06-10T06:33:31;20.75;;;17.75;;
75218;SDS011;63801;49.414;19.474;2023-06-10T06:35:32;15.35;;;9.95;;
75218;SDS011;63801;49.414;19.474;2023-06-10T06:37:33;13.52;;;9.73;;
75218;SDS011;63801;49.414;19.474;2023-06-10T06:39:35;13.02;;;9.25;;
75218;SDS011;63801;49.414;19.474;2023-06-10T06:41:35;12.93;;;9.25;;
75218;SDS011;63801;49.414;19.474;2023-06-10T06:43:35;12.55;;;8.23;;
75218;SDS011;63801;49.414;19.474;2023-06-10T06:45:36;13.88;;;9.95;;
75218;SDS011;63801;49.414;19.474;2023-06-10T06:47:36;14.77;;;9.52;;
75218;SDS011;63801;49.414;19.474;2023-06-10T06:49:37;14.05;;;9.10;;
75218;SDS011;63801;49.414;19.474;2023-06-10T06:51:37;12.35;;;8.20;;
75218;SDS011;63801;49.414;19.474;2023-06-10T06:53:38;14.07;;;9.18;;
75218;SDS011;63801;49.414;19.474;2023-06-10T06:55:44;19.83;;;15.68;;
75218;SDS011;63801;49.414;19.474;2023-06-10T06:57:44;20.05;;;14.20;;
75218;SDS011;63801;49.414;19.474;2023-06-10T06:59:44;26.67;;;19.65;;
75218;SDS011;63801;49.414;19.474;2023-06-10T07:01:45;13.98;;;10.48;;
75218;SDS011;63801;49.414;19.474;2023-06-10T07:03:46;23.05;;;13.98;;
75218;SDS011;63801;49.414;19.474;2023-06-10T07:05:46;60.60;;;39.15;;
75218;SDS011;63801;49.414;19.474;2023-06-10T07:07:47;14.00;;;9.15;;
75218;SDS011;63801;49.414;19.474;2023-06-10T07:09:47;12.38;;;7.85;;
75218;SDS011;63801;49.414;19.474;2023-06-10T07:11:47;16.92;;;13.63;;
75218;SDS011;63801;49.414;19.474;2023-06-10T07:13:48;22.13;;;15.02;;
75218;SDS011;63801;49.414;19.474;2023-06-10T07:15:49;22.25;;;15.93;;
75218;SDS011;63801;49.414;19.474;2023-06-10T07:17:49;13.88;;;9.18;;
75218;SDS011;63801;49.414;19.474;2023-06-10T07:19:50;13.82;;;9.02;;
75218;SDS011;63801;49.414;19.474;2023-06-10T07:21:51;13.35;;;11.25;;
75218;SDS011;63801;49.414;19.474;2023-06-10T07:23:52;13.20;;;8.68;;
75218;SDS011;63801;49.414;19.474;2023-06-10T07:25:55;12.90;;;9.25;;
75218;SDS011;63801;49.414;19.474;2023-06-10T07:27:55;12.77;;;9.25;;
75218;SDS011;63801;49.414;19.474;2023-06-10T07:29:55;14.48;;;10.80;;
75218;SDS011;63801;49.414;19.474;2023-06-10T07:31:56;12.07;;;7.88;;
75218;SDS011;63801;49.414;19.474;2023-06-10T07:33:56;12.93;;;7.78;;
75218;SDS011;63801;49.414;19.474;2023-06-10T07:35:57;18.92;;;15.65;;
75218;SDS011;63801;49.414;19.474;2023-06-10T07:37:57;14.30;;;10.88;;
75218;SDS011;63801;49.414;19.474;2023-06-10T07:39:57;13.85;;;8.48;;
75218;SDS011;63801;49.414;19.474;2023-06-10T07:41:57;16.60;;;12.65;;
75218;SDS011;63801;49.414;19.474;2023-06-10T07:43:58;12.55;;;10.15;;
75218;SDS011;63801;49.414;19.474;2023-06-10T07:45:59;15.65;;;12.63;;
75218;SDS011;63801;49.414;19.474;2023-06-10T07:48:00;9.90;;;7.05;;
75218;SDS011;63801;49.414;19.474;2023-06-10T07:50:00;13.73;;;8.02;;
75218;SDS011;63801;49.414;19.474;2023-06-10T07:52:00;18.65;;;15.32;;
75218;SDS011;63801;49.414;19.474;2023-06-10T07:54:01;17.67;;;10.88;;
75218;SDS011;63801;49.414;19.474;2023-06-10T07:56:01;14.15;;;10.30;;
75218;SDS011;63801;49.414;19.474;2023-06-10T07:58:01;20.23;;;16.30;;
75218;SDS011;63801;49.414;19.474;2023-06-10T08:00:02;21.33;;;16.30;;
75218;SDS011;63801;49.414;19.474;2023-06-10T08:02:04;31.85;;;22.80;;
75218;SDS011;63801;49.414;19.474;2023-06-10T08:04:05;14.50;;;8.60;;
75218;SDS011;63801;49.414;19.474;2023-06-10T08:06:06;15.23;;;9.85;;
75218;SDS011;63801;49.414;19.474;2023-06-10T08:08:06;14.52;;;8.95;;
75218;SDS011;63801;49.414;19.474;2023-06-10T08:10:06;14.88;;;10.23;;
75218;SDS011;63801;49.414;19.474;2023-06-10T08:12:07;12.90;;;8.52;;
75218;SDS011;63801;49.414;19.474;2023-06-10T08:14:07;14.20;;;9.23;;
75218;SDS011;63801;49.414;19.474;2023-06-10T08:16:08;12.80;;;8.27;;
75218;SDS011;63801;49.414;19.474;2023-06-10T08:18:08;16.60;;;12.93;;
75218;SDS011;63801;49.414;19.474;2023-06-10T08:20:08;13.38;;;8.98;;
75218;SDS011;63801;49.414;19.474;2023-06-10T08:22:09;12.13;;;8.45;;
75218;SDS011;63801;49.414;19.474;2023-06-10T08:24:10;15.60;;;11.60;;
75218;SDS011;63801;49.414;19.474;2023-06-10T08:26:10;18.02;;;14.63;;
75218;SDS011;63801;49.414;19.474;2023-06-10T08:28:10;11.73;;;8.70;;
75218;SDS011;63801;49.414;19.474;2023-06-10T08:30:11;18.20;;;12.82;;
75218;SDS011;63801;49.414;19.474;2023-06-10T08:32:13;22.90;;;17.30;;
75218;SDS011;63801;49.414;19.474;2023-06-10T08:34:13;14.40;;;10.18;;
75218;SDS011;63801;49.414;19.474;2023-06-10T08:36:13;11.57;;;8.98;;
75218;SDS011;63801;49.414;19.474;2023-06-10T08:38:14;11.77;;;8.10;;
75218;SDS011;63801;49.414;19.474;2023-06-10T08:40:16;15.50;;;11.25;;
75218;SDS011;63801;49.414;19.474;2023-06-10T08:44:28;12.80;;;8.95;;
75218;SDS011;63801;49.414;19.474;2023-06-10T08:46:29;14.05;;;8.75;;
75218;SDS011;63801;49.414;19.474;2023-06-10T08:48:32;11.38;;;8.23;;
75218;SDS011;63801;49.414;19.474;2023-06-10T08:50:35;10.43;;;7.32;;
75218;SDS011;63801;49.414;19.474;2023-06-10T08:52:37;11.30;;;7.78;;
75218;SDS011;63801;49.414;19.474;2023-06-10T08:54:43;16.55;;;9.60;;
75218;SDS011;63801;49.414;19.474;2023-06-10T08:56:51;13.93;;;8.63;;
75218;SDS011;63801;49.414;19.474;2023-06-10T08:58:55;13.05;;;9.10;;
75218;SDS011;63801;49.414;19.474;2023-06-10T09:00:57;11.35;;;7.65;;
75218;SDS011;63801;49.414;19.474;2023-06-10T09:02:59;11.73;;;8.00;;
75218;SDS011;63801;49.414;19.474;2023-06-10T09:05:00;15.80;;;9.73;;
75218;SDS011;63801;49.414;19.474;2023-06-10T09:07:01;10.90;;;7.60;;
75218;SDS011;63801;49.414;19.474;2023-06-10T09:09:02;20.75;;;16.73;;
75218;SDS011;63801;49.414;19.474;2023-06-10T09:11:02;20.55;;;15.60;;
75218;SDS011;63801;49.414;19.474;2023-06-10T09:13:03;11.55;;;7.95;;
75218;SDS011;63801;49.414;19.474;2023-06-10T09:15:04;13.07;;;9.10;;
75218;SDS011;63801;49.414;19.474;2023-06-10T09:17:05;12.75;;;8.35;;
75218;SDS011;63801;49.414;19.474;2023-06-10T09:19:06;28.83;;;16.95;;
75218;SDS011;63801;49.414;19.474;2023-06-10T09:21:09;11.30;;;7.13;;
75218;SDS011;63801;49.414;19.474;2023-06-10T09:23:10;11.88;;;8.00;;
75218;SDS011;63801;49.414;19.474;2023-06-10T09:25:11;11.10;;;7.75;;
75218;SDS011;63801;49.414;19.474;2023-06-10T09:27:12;10.70;;;7.57;;
75218;SDS011;63801;49.414;19.474;2023-06-10T09:29:12;10.18;;;6.80;;
75218;SDS011;63801;49.414;19.474;2023-06-10T09:31:13;12.07;;;7.38;;
75218;SDS011;63801;49.414;19.474;2023-06-10T09:33:14;9.75;;;7.47;;
75218;SDS011;63801;49.414;19.474;2023-06-10T09:35:15;13.23;;;8.17;;
75218;SDS011;63801;49.414;19.474;2023-06-10T09:37:20;18.98;;;12.13;;
75218;SDS011;63801;49.414;19.474;2023-06-10T09:39:21;12.50;;;7.68;;
75218;SDS011;63801;49.414;19.474;2023-06-10T09:41:21;14.93;;;10.07;;
75218;SDS011;63801;49.414;19.474;2023-06-10T09:43:21;17.35;;;10.13;;
75218;SDS011;63801;49.414;19.474;2023-06-10T09:45:22;16.60;;;11.50;;
75218;SDS011;63801;49.414;19.474;2023-06-10T09:47:23;16.90;;;11.38;;
75218;SDS011;63801;49.414;19.474;2023-06-10T09:49:24;16.63;;;11.35;;
75218;SDS011;63801;49.414;19.474;2023-06-10T09:51:29;15.23;;;12.23;;
75218;SDS011;63801;49.414;19.474;2023-06-10T09:53:33;17.10;;;13.38;;
75218;SDS011;63801;49.414;19.474;2023-06-10T09:55:33;20.85;;;13.80;;
75218;SDS011;63801;49.414;19.474;2023-06-10T09:57:35;17.40;;;11.38;;
75218;SDS011;63801;49.414;19.474;2023-06-10T09:59:41;19.70;;;14.25;;
75218;SDS011;63801;49.414;19.474;2023-06-10T10:01:41;19.67;;;14.60;;
75218;SDS011;63801;49.414;19.474;2023-06-10T10:03:45;23.73;;;14.75;;
75218;SDS011;63801;49.414;19.474;2023-06-10T10:05:57;21.70;;;15.93;;
75218;SDS011;63801;49.414;19.474;2023-06-10T10:07:59;22.95;;;17.67;;
75218;SDS011;63801;49.414;19.474;2023-06-10T10:10:00;26.05;;;18.65;;
75218;SDS011;63801;49.414;19.474;2023-06-10T10:12:01;26.15;;;19.02;;
75218;SDS011;63801;49.414;19.474;2023-06-10T10:14:02;26.95;;;17.85;;
75218;SDS011;63801;49.414;19.474;2023-06-10T10:16:06;27.27;;;19.70;;
75218;SDS011;63801;49.414;19.474;2023-06-10T10:18:11;26.75;;;19.15;;
75218;SDS011;63801;49.414;19.474;2023-06-10T10:20:17;29.02;;;19.55;;
75218;SDS011;63801;49.414;19.474;2023-06-10T10:22:25;29.30;;;21.27;;
75218;SDS011;63801;49.414;19.474;2023-06-10T10:24:31;31.48;;;21.33;;
75218;SDS011;63801;49.414;19.474;2023-06-10T10:26:36;26.00;;;20.58;;
75218;SDS011;63801;49.414;19.474;2023-06-10T10:28:43;29.20;;;19.83;;
75218;SDS011;63801;49.414;19.474;2023-06-10T10:30:49;30.42;;;21.58;;
75218;SDS011;63801;49.414;19.474;2023-06-10T10:32:56;34.92;;;22.95;;
75218;SDS011;63801;49.414;19.474;2023-06-10T10:35:03;33.03;;;24.55;;
75218;SDS011;63801;49.414;19.474;2023-06-10T10:37:12;33.40;;;23.58;;
75218;SDS011;63801;49.414;19.474;2023-06-10T10:39:12;32.30;;;24.65;;
75218;SDS011;63801;49.414;19.474;2023-06-10T10:41:13;31.15;;;22.77;;
75218;SDS011;63801;49.414;19.474;2023-06-10T10:43:14;32.33;;;21.60;;
75218;SDS011;63801;49.414;19.474;2023-06-10T10:45:16;34.45;;;23.92;;
75218;SDS011;63801;49.414;19.474;2023-06-10T10:47:17;33.45;;;24.65;;
75218;SDS011;63801;49.414;19.474;2023-06-10T10:49:22;29.60;;;22.00;;
75218;SDS011;63801;49.414;19.474;2023-06-10T10:51:24;31.77;;;22.40;;
75218;SDS011;63801;49.414;19.474;2023-06-10T10:53:25;32.47;;;23.52;;
75218;SDS011;63801;49.414;19.474;2023-06-10T10:55:26;31.90;;;23.55;;
75218;SDS011;63801;49.414;19.474;2023-06-10T10:57:28;30.95;;;23.60;;
75218;SDS011;63801;49.414;19.474;2023-06-10T10:59:42;32.45;;;24.35;;
75218;SDS011;63801;49.414;19.474;2023-06-10T11:01:49;32.90;;;23.60;;
75218;SDS011;63801;49.414;19.474;2023-06-10T11:03:49;32.05;;;23.65;;
75218;SDS011;63801;49.414;19.474;2023-06-10T11:05:50;32.90;;;24.95;;
75218;SDS011;63801;49.414;19.474;2023-06-10T11:07:54;37.08;;;26.27;;
75218;SDS011;63801;49.414;19.474;2023-06-10T11:12:05;35.30;;;25.98;;
75218;SDS011;63801;49.414;19.474;2023-06-10T11:14:06;40.13;;;27.20;;
75218;SDS011;63801;49.414;19.474;2023-06-10T11:16:09;36.47;;;25.48;;
75218;SDS011;63801;49.414;19.474;2023-06-10T11:18:12;34.42;;;26.48;;
75218;SDS011;63801;49.414;19.474;2023-06-10T11:20:13;39.58;;;27.38;;
75218;SDS011;63801;49.414;19.474;2023-06-10T11:23:01;36.45;;;26.55;;
75218;SDS011;63801;49.414;19.474;2023-06-10T11:25:02;34.60;;;25.33;;
75218;SDS011;63801;49.414;19.474;2023-06-10T11:27:21;45.08;;;26.00;;
75218;SDS011;63801;49.414;19.474;2023-06-10T11:29:22;37.65;;;27.02;;
75218;SDS011;63801;49.414;19.474;2023-06-10T11:33:27;35.60;;;26.10;;
75218;SDS011;63801;49.414;19.474;2023-06-10T11:35:28;43.47;;;28.02;;
75218;SDS011;63801;49.414;19.474;2023-06-10T11:37:30;40.10;;;28.30;;
75218;SDS011;63801;49.414;19.474;2023-06-10T11:39:30;42.97;;;29.42;;
75218;SDS011;63801;49.414;19.474;2023-06-10T11:41:31;38.85;;;28.15;;
75218;SDS011;63801;49.414;19.474;2023-06-10T11:43:33;42.13;;;27.33;;
75218;SDS011;63801;49.414;19.474;2023-06-10T11:45:34;38.35;;;27.50;;
75218;SDS011;63801;49.414;19.474;2023-06-10T11:47:34;37.35;;;26.45;;
75218;SDS011;63801;49.414;19.474;2023-06-10T11:49:35;35.10;;;25.55;;
75218;SDS011;63801;49.414;19.474;2023-06-10T11:51:37;35.25;;;26.60;;
75218;SDS011;63801;49.414;19.474;2023-06-10T11:53:40;37.08;;;26.63;;
75218;SDS011;63801;49.414;19.474;2023-06-10T11:55:44;32.58;;;25.13;;